Terminal Aerodrome Forecast
Issued by NWS Sioux Falls, SD

Home | Current Version | Previous Version | Text Only | Print | Product List | Glossary On
Versions: 1 2 3 4 5 6 7 8 9 10 11 12 13 14 15 16 17 18 19 20 21 22
000
FTUS43 KFSD 222340
TAFSUX
TAF
KSUX 222340Z 2300/2324 18008KT P6SM BKN200
     FM230400 20005KT P6SM FEW250
     FM230900 32007KT P6SM FEW250
     FM231500 VRB03KT P6SM FEW200
     FM232000 20007KT P6SM FEW250
     FM232200 17008KT P6SM FEW250=

USA.gov is the U.S. government's official web portal to all federal, state and local government web resources and services.